sensor_id;sensor_type;location;lat;lon;timestamp;P1;durP1;ratioP1;P2;durP2;ratioP2
43933;SDS011;59081;42.706;23.306;2023-04-24T00:01:37;10.77;;;5.65;;
43933;SDS011;59081;42.706;23.306;2023-04-24T00:04:04;11.35;;;5.80;;
43933;SDS011;59081;42.706;23.306;2023-04-24T00:06:31;9.55;;;5.57;;
43933;SDS011;59081;42.706;23.306;2023-04-24T00:09:02;16.05;;;5.72;;
43933;SDS011;59081;42.706;23.306;2023-04-24T00:11:28;7.60;;;5.30;;
43933;SDS011;59081;42.706;23.306;2023-04-24T00:13:54;10.57;;;5.65;;
43933;SDS011;59081;42.706;23.306;2023-04-24T00:16:20;7.97;;;5.15;;
43933;SDS011;59081;42.706;23.306;2023-04-24T00:18:46;10.27;;;5.43;;
43933;SDS011;59081;42.706;23.306;2023-04-24T00:21:13;9.90;;;5.03;;
43933;SDS011;59081;42.706;23.306;2023-04-24T00:23:38;9.00;;;5.22;;
43933;SDS011;59081;42.706;23.306;2023-04-24T00:26:04;11.85;;;5.50;;
43933;SDS011;59081;42.706;23.306;2023-04-24T00:28:29;9.90;;;5.35;;
43933;SDS011;59081;42.706;23.306;2023-04-24T00:30:55;8.10;;;4.75;;
43933;SDS011;59081;42.706;23.306;2023-04-24T00:33:21;6.88;;;4.70;;
43933;SDS011;59081;42.706;23.306;2023-04-24T00:35:46;11.02;;;5.32;;
43933;SDS011;59081;42.706;23.306;2023-04-24T00:38:11;8.18;;;4.47;;
43933;SDS011;59081;42.706;23.306;2023-04-24T00:40:37;8.43;;;4.53;;
43933;SDS011;59081;42.706;23.306;2023-04-24T00:43:02;14.48;;;5.25;;
43933;SDS011;59081;42.706;23.306;2023-04-24T00:45:28;8.90;;;4.80;;
43933;SDS011;59081;42.706;23.306;2023-04-24T00:47:56;10.00;;;5.72;;
43933;SDS011;59081;42.706;23.306;2023-04-24T00:50:23;8.02;;;5.10;;
43933;SDS011;59081;42.706;23.306;2023-04-24T00:52:49;8.85;;;5.53;;
43933;SDS011;59081;42.706;23.306;2023-04-24T00:55:15;7.85;;;4.90;;
43933;SDS011;59081;42.706;23.306;2023-04-24T00:57:41;11.77;;;5.45;;
43933;SDS011;59081;42.706;23.306;2023-04-24T01:00:07;6.93;;;4.75;;
43933;SDS011;59081;42.706;23.306;2023-04-24T01:02:35;9.48;;;5.28;;
43933;SDS011;59081;42.706;23.306;2023-04-24T01:05:05;5.72;;;4.03;;
43933;SDS011;59081;42.706;23.306;2023-04-24T01:07:32;4.95;;;3.85;;
43933;SDS011;59081;42.706;23.306;2023-04-24T01:09:58;9.70;;;4.85;;
43933;SDS011;59081;42.706;23.306;2023-04-24T01:12:23;8.43;;;4.97;;
43933;SDS011;59081;42.706;23.306;2023-04-24T01:14:49;10.30;;;4.13;;
43933;SDS011;59081;42.706;23.306;2023-04-24T01:17:14;5.97;;;3.97;;
43933;SDS011;59081;42.706;23.306;2023-04-24T01:19:40;8.05;;;4.63;;
43933;SDS011;59081;42.706;23.306;2023-04-24T01:22:15;11.55;;;4.65;;
43933;SDS011;59081;42.706;23.306;2023-04-24T01:24:42;6.50;;;4.43;;
43933;SDS011;59081;42.706;23.306;2023-04-24T01:27:08;8.45;;;5.07;;
43933;SDS011;59081;42.706;23.306;2023-04-24T01:29:35;9.85;;;4.75;;
43933;SDS011;59081;42.706;23.306;2023-04-24T01:32:01;7.00;;;4.55;;
43933;SDS011;59081;42.706;23.306;2023-04-24T01:34:28;7.07;;;4.72;;
43933;SDS011;59081;42.706;23.306;2023-04-24T01:36:53;7.80;;;4.38;;
43933;SDS011;59081;42.706;23.306;2023-04-24T01:39:19;8.68;;;4.60;;
43933;SDS011;59081;42.706;23.306;2023-04-24T01:41:45;7.18;;;4.93;;
43933;SDS011;59081;42.706;23.306;2023-04-24T01:44:11;7.88;;;5.15;;
43933;SDS011;59081;42.706;23.306;2023-04-24T01:46:37;5.43;;;4.88;;
43933;SDS011;59081;42.706;23.306;2023-04-24T01:49:03;7.38;;;4.60;;
43933;SDS011;59081;42.706;23.306;2023-04-24T01:51:29;9.70;;;5.60;;
43933;SDS011;59081;42.706;23.306;2023-04-24T01:53:55;9.85;;;4.95;;
43933;SDS011;59081;42.706;23.306;2023-04-24T01:56:21;7.85;;;5.32;;
43933;SDS011;59081;42.706;23.306;2023-04-24T01:58:47;8.68;;;5.65;;
43933;SDS011;59081;42.706;23.306;2023-04-24T02:01:17;7.60;;;4.90;;
43933;SDS011;59081;42.706;23.306;2023-04-24T02:03:44;10.68;;;5.78;;
43933;SDS011;59081;42.706;23.306;2023-04-24T02:06:09;6.15;;;4.95;;
43933;SDS011;59081;42.706;23.306;2023-04-24T02:08:34;8.50;;;5.22;;
43933;SDS011;59081;42.706;23.306;2023-04-24T02:11:00;7.10;;;5.03;;
43933;SDS011;59081;42.706;23.306;2023-04-24T02:13:27;6.47;;;5.65;;
43933;SDS011;59081;42.706;23.306;2023-04-24T02:15:53;7.57;;;5.93;;
43933;SDS011;59081;42.706;23.306;2023-04-24T02:18:18;11.43;;;5.82;;
43933;SDS011;59081;42.706;23.306;2023-04-24T02:20:44;8.52;;;5.22;;
43933;SDS011;59081;42.706;23.306;2023-04-24T02:23:09;8.10;;;5.15;;
43933;SDS011;59081;42.706;23.306;2023-04-24T02:25:34;7.15;;;4.95;;
43933;SDS011;59081;42.706;23.306;2023-04-24T02:28:00;8.60;;;5.22;;
43933;SDS011;59081;42.706;23.306;2023-04-24T02:30:25;9.20;;;5.63;;
43933;SDS011;59081;42.706;23.306;2023-04-24T02:32:51;8.50;;;5.30;;
43933;SDS011;59081;42.706;23.306;2023-04-24T02:35:16;9.95;;;5.18;;
43933;SDS011;59081;42.706;23.306;2023-04-24T02:37:42;12.60;;;6.15;;
43933;SDS011;59081;42.706;23.306;2023-04-24T02:40:08;5.85;;;4.60;;
43933;SDS011;59081;42.706;23.306;2023-04-24T02:42:34;8.38;;;5.97;;
43933;SDS011;59081;42.706;23.306;2023-04-24T02:44:59;8.68;;;5.32;;
43933;SDS011;59081;42.706;23.306;2023-04-24T02:47:25;6.65;;;5.00;;
43933;SDS011;59081;42.706;23.306;2023-04-24T02:49:50;7.32;;;4.85;;
43933;SDS011;59081;42.706;23.306;2023-04-24T02:52:16;11.77;;;5.00;;
43933;SDS011;59081;42.706;23.306;2023-04-24T02:54:42;10.68;;;5.43;;
43933;SDS011;59081;42.706;23.306;2023-04-24T02:57:08;9.55;;;5.55;;
43933;SDS011;59081;42.706;23.306;2023-04-24T02:59:33;8.63;;;5.50;;
43933;SDS011;59081;42.706;23.306;2023-04-24T03:01:59;10.43;;;6.10;;
43933;SDS011;59081;42.706;23.306;2023-04-24T03:04:24;18.80;;;7.90;;
43933;SDS011;59081;42.706;23.306;2023-04-24T03:06:50;11.75;;;5.50;;
43933;SDS011;59081;42.706;23.306;2023-04-24T03:09:18;9.98;;;5.75;;
43933;SDS011;59081;42.706;23.306;2023-04-24T03:11:43;12.10;;;6.85;;
43933;SDS011;59081;42.706;23.306;2023-04-24T03:14:09;11.40;;;7.57;;
43933;SDS011;59081;42.706;23.306;2023-04-24T03:19:18;11.25;;;7.05;;
43933;SDS011;59081;42.706;23.306;2023-04-24T03:21:44;11.20;;;7.78;;
43933;SDS011;59081;42.706;23.306;2023-04-24T03:24:10;10.40;;;7.22;;
43933;SDS011;59081;42.706;23.306;2023-04-24T03:26:35;17.58;;;8.25;;
43933;SDS011;59081;42.706;23.306;2023-04-24T03:29:01;15.52;;;8.10;;
43933;SDS011;59081;42.706;23.306;2023-04-24T03:31:26;16.42;;;8.43;;
43933;SDS011;59081;42.706;23.306;2023-04-24T03:33:52;15.27;;;6.93;;
43933;SDS011;59081;42.706;23.306;2023-04-24T03:36:17;14.20;;;7.65;;
43933;SDS011;59081;42.706;23.306;2023-04-24T03:38:44;11.02;;;7.45;;
43933;SDS011;59081;42.706;23.306;2023-04-24T03:41:10;17.15;;;8.25;;
43933;SDS011;59081;42.706;23.306;2023-04-24T03:43:36;12.82;;;7.80;;
43933;SDS011;59081;42.706;23.306;2023-04-24T03:46:02;21.42;;;8.75;;
43933;SDS011;59081;42.706;23.306;2023-04-24T03:48:27;16.65;;;8.55;;
43933;SDS011;59081;42.706;23.306;2023-04-24T03:50:53;15.23;;;7.63;;
43933;SDS011;59081;42.706;23.306;2023-04-24T03:53:18;15.43;;;8.13;;
43933;SDS011;59081;42.706;23.306;2023-04-24T03:55:44;18.40;;;8.25;;
43933;SDS011;59081;42.706;23.306;2023-04-24T03:58:10;16.42;;;8.80;;
43933;SDS011;59081;42.706;23.306;2023-04-24T04:00:36;16.38;;;8.10;;
43933;SDS011;59081;42.706;23.306;2023-04-24T04:03:02;15.18;;;8.18;;
43933;SDS011;59081;42.706;23.306;2023-04-24T04:05:28;18.67;;;7.80;;
43933;SDS011;59081;42.706;23.306;2023-04-24T04:07:54;14.55;;;8.75;;
43933;SDS011;59081;42.706;23.306;2023-04-24T04:10:20;14.82;;;7.78;;
43933;SDS011;59081;42.706;23.306;2023-04-24T04:12:45;12.60;;;7.68;;
43933;SDS011;59081;42.706;23.306;2023-04-24T04:15:10;14.18;;;7.88;;
43933;SDS011;59081;42.706;23.306;2023-04-24T04:17:36;12.18;;;7.40;;
43933;SDS011;59081;42.706;23.306;2023-04-24T04:20:03;11.40;;;7.10;;
43933;SDS011;59081;42.706;23.306;2023-04-24T04:22:33;14.27;;;6.68;;
43933;SDS011;59081;42.706;23.306;2023-04-24T04:24:59;11.88;;;6.70;;
43933;SDS011;59081;42.706;23.306;2023-04-24T04:27:24;13.65;;;6.38;;
43933;SDS011;59081;42.706;23.306;2023-04-24T04:29:50;13.10;;;6.05;;
43933;SDS011;59081;42.706;23.306;2023-04-24T04:32:16;8.68;;;4.97;;
43933;SDS011;59081;42.706;23.306;2023-04-24T04:34:41;10.35;;;5.28;;
43933;SDS011;59081;42.706;23.306;2023-04-24T04:37:07;6.28;;;4.80;;
43933;SDS011;59081;42.706;23.306;2023-04-24T04:39:33;8.63;;;4.65;;
43933;SDS011;59081;42.706;23.306;2023-04-24T04:41:59;8.50;;;5.00;;
43933;SDS011;59081;42.706;23.306;2023-04-24T04:44:26;14.40;;;5.32;;
43933;SDS011;59081;42.706;23.306;2023-04-24T04:46:52;46.47;;;21.23;;
43933;SDS011;59081;42.706;23.306;2023-04-24T04:49:30;16.05;;;6.25;;
43933;SDS011;59081;42.706;23.306;2023-04-24T04:51:56;17.33;;;10.50;;
43933;SDS011;59081;42.706;23.306;2023-04-24T04:54:22;10.88;;;5.75;;
43933;SDS011;59081;42.706;23.306;2023-04-24T04:56:49;5.90;;;4.55;;
43933;SDS011;59081;42.706;23.306;2023-04-24T04:59:15;12.02;;;6.30;;
43933;SDS011;59081;42.706;23.306;2023-04-24T05:01:42;11.27;;;6.75;;
43933;SDS011;59081;42.706;23.306;2023-04-24T05:04:07;11.70;;;5.82;;
43933;SDS011;59081;42.706;23.306;2023-04-24T05:06:33;22.35;;;11.77;;
43933;SDS011;59081;42.706;23.306;2023-04-24T05:08:58;15.48;;;8.52;;
43933;SDS011;59081;42.706;23.306;2023-04-24T05:11:24;10.77;;;7.47;;
43933;SDS011;59081;42.706;23.306;2023-04-24T05:13:50;12.93;;;6.75;;
43933;SDS011;59081;42.706;23.306;2023-04-24T05:16:15;16.60;;;7.55;;
43933;SDS011;59081;42.706;23.306;2023-04-24T05:18:41;20.73;;;8.35;;
43933;SDS011;59081;42.706;23.306;2023-04-24T05:21:06;21.90;;;8.73;;
43933;SDS011;59081;42.706;23.306;2023-04-24T05:23:31;18.48;;;9.00;;
43933;SDS011;59081;42.706;23.306;2023-04-24T05:25:57;16.35;;;8.18;;
43933;SDS011;59081;42.706;23.306;2023-04-24T05:28:22;17.50;;;8.65;;
43933;SDS011;59081;42.706;23.306;2023-04-24T05:30:48;17.92;;;9.45;;
43933;SDS011;59081;42.706;23.306;2023-04-24T05:33:13;17.00;;;8.55;;
43933;SDS011;59081;42.706;23.306;2023-04-24T05:35:40;20.05;;;9.23;;
43933;SDS011;59081;42.706;23.306;2023-04-24T05:38:11;11.23;;;6.55;;
43933;SDS011;59081;42.706;23.306;2023-04-24T05:40:36;12.32;;;6.65;;
43933;SDS011;59081;42.706;23.306;2023-04-24T05:43:02;9.93;;;5.57;;
43933;SDS011;59081;42.706;23.306;2023-04-24T05:45:27;15.60;;;6.80;;
43933;SDS011;59081;42.706;23.306;2023-04-24T05:47:53;15.25;;;7.93;;
43933;SDS011;59081;42.706;23.306;2023-04-24T05:50:18;9.20;;;5.80;;
43933;SDS011;59081;42.706;23.306;2023-04-24T05:52:44;9.80;;;4.90;;
43933;SDS011;59081;42.706;23.306;2023-04-24T05:55:10;9.98;;;6.80;;
43933;SDS011;59081;42.706;23.306;2023-04-24T05:57:35;10.73;;;5.93;;
43933;SDS011;59081;42.706;23.306;2023-04-24T06:00:01;11.70;;;6.93;;
43933;SDS011;59081;42.706;23.306;2023-04-24T06:02:27;12.98;;;7.65;;
43933;SDS011;59081;42.706;23.306;2023-04-24T06:04:53;9.90;;;6.38;;
43933;SDS011;59081;42.706;23.306;2023-04-24T06:07:20;11.75;;;6.30;;
43933;SDS011;59081;42.706;23.306;2023-04-24T06:09:46;15.23;;;6.22;;
43933;SDS011;59081;42.706;23.306;2023-04-24T06:12:12;11.75;;;5.95;;
43933;SDS011;59081;42.706;23.306;2023-04-24T06:14:37;11.00;;;5.80;;
43933;SDS011;59081;42.706;23.306;2023-04-24T06:17:03;19.17;;;6.32;;
43933;SDS011;59081;42.706;23.306;2023-04-24T06:19:28;11.43;;;5.88;;
43933;SDS011;59081;42.706;23.306;2023-04-24T06:21:54;13.25;;;6.65;;
43933;SDS011;59081;42.706;23.306;2023-04-24T06:24:19;11.63;;;6.20;;
43933;SDS011;59081;42.706;23.306;2023-04-24T06:26:45;13.57;;;6.72;;
43933;SDS011;59081;42.706;23.306;2023-04-24T06:29:11;11.07;;;6.18;;
43933;SDS011;59081;42.706;23.306;2023-04-24T06:31:36;12.88;;;7.25;;
43933;SDS011;59081;42.706;23.306;2023-04-24T06:34:02;16.25;;;6.85;;
43933;SDS011;59081;42.706;23.306;2023-04-24T06:36:28;12.23;;;6.72;;
43933;SDS011;59081;42.706;23.306;2023-04-24T06:38:54;11.57;;;7.18;;
43933;SDS011;59081;42.706;23.306;2023-04-24T06:41:20;13.88;;;6.85;;
43933;SDS011;59081;42.706;23.306;2023-04-24T06:43:45;17.48;;;6.95;;
43933;SDS011;59081;42.706;23.306;2023-04-24T06:46:11;10.38;;;7.15;;
43933;SDS011;59081;42.706;23.306;2023-04-24T06:48:37;9.75;;;6.50;;
43933;SDS011;59081;42.706;23.306;2023-04-24T06:51:02;19.05;;;7.65;;
43933;SDS011;59081;42.706;23.306;2023-04-24T06:53:28;12.45;;;6.82;;
43933;SDS011;59081;42.706;23.306;2023-04-24T06:55:53;12.32;;;7.55;;
43933;SDS011;59081;42.706;23.306;2023-04-24T06:58:19;15.00;;;8.07;;
43933;SDS011;59081;42.706;23.306;2023-04-24T07:00:45;11.15;;;6.55;;
43933;SDS011;59081;42.706;23.306;2023-04-24T07:03:10;9.88;;;6.18;;
43933;SDS011;59081;42.706;23.306;2023-04-24T07:05:36;14.15;;;6.30;;
43933;SDS011;59081;42.706;23.306;2023-04-24T07:08:03;11.10;;;7.40;;
43933;SDS011;59081;42.706;23.306;2023-04-24T07:10:29;11.57;;;7.10;;
43933;SDS011;59081;42.706;23.306;2023-04-24T07:12:55;13.18;;;7.38;;
43933;SDS011;59081;42.706;23.306;2023-04-24T07:15:26;18.10;;;7.78;;
43933;SDS011;59081;42.706;23.306;2023-04-24T07:17:52;14.60;;;7.38;;
43933;SDS011;59081;42.706;23.306;2023-04-24T07:20:17;9.77;;;7.25;;
43933;SDS011;59081;42.706;23.306;2023-04-24T07:22:43;13.57;;;7.00;;
43933;SDS011;59081;42.706;23.306;2023-04-24T07:25:08;14.43;;;7.68;;
43933;SDS011;59081;42.706;23.306;2023-04-24T07:27:34;22.75;;;8.75;;
43933;SDS011;59081;42.706;23.306;2023-04-24T07:30:01;9.55;;;6.93;;
43933;SDS011;59081;42.706;23.306;2023-04-24T07:32:26;15.85;;;7.65;;
43933;SDS011;59081;42.706;23.306;2023-04-24T07:34:52;12.05;;;7.57;;
43933;SDS011;59081;42.706;23.306;2023-04-24T07:37:17;12.07;;;7.32;;
43933;SDS011;59081;42.706;23.306;2023-04-24T07:39:43;13.43;;;7.38;;
43933;SDS011;59081;42.706;23.306;2023-04-24T07:42:08;12.25;;;7.30;;
43933;SDS011;59081;42.706;23.306;2023-04-24T07:44:34;9.70;;;7.00;;
43933;SDS011;59081;42.706;23.306;2023-04-24T07:47:01;11.00;;;7.15;;
43933;SDS011;59081;42.706;23.306;2023-04-24T07:49:26;17.35;;;7.90;;
43933;SDS011;59081;42.706;23.306;2023-04-24T07:51:52;12.25;;;7.00;;
43933;SDS011;59081;42.706;23.306;2023-04-24T07:54:18;9.15;;;6.15;;
43933;SDS011;59081;42.706;23.306;2023-04-24T07:56:43;12.93;;;6.68;;
43933;SDS011;59081;42.706;23.306;2023-04-24T07:59:10;10.25;;;6.43;;
43933;SDS011;59081;42.706;23.306;2023-04-24T08:01:35;11.55;;;5.88;;
43933;SDS011;59081;42.706;23.306;2023-04-24T08:04:01;12.50;;;5.68;;
43933;SDS011;59081;42.706;23.306;2023-04-24T08:06:27;13.75;;;6.25;;
43933;SDS011;59081;42.706;23.306;2023-04-24T08:08:55;10.25;;;6.00;;
43933;SDS011;59081;42.706;23.306;2023-04-24T08:11:21;13.07;;;7.45;;
43933;SDS011;59081;42.706;23.306;2023-04-24T08:13:47;15.57;;;5.78;;
43933;SDS011;59081;42.706;23.306;2023-04-24T08:16:12;8.52;;;5.10;;
43933;SDS011;59081;42.706;23.306;2023-04-24T08:18:38;9.25;;;5.70;;
43933;SDS011;59081;42.706;23.306;2023-04-24T08:21:03;11.27;;;6.15;;
43933;SDS011;59081;42.706;23.306;2023-04-24T08:23:29;10.55;;;5.80;;
43933;SDS011;59081;42.706;23.306;2023-04-24T08:25:55;10.05;;;6.00;;
43933;SDS011;59081;42.706;23.306;2023-04-24T08:28:21;11.05;;;5.60;;
43933;SDS011;59081;42.706;23.306;2023-04-24T08:30:46;10.48;;;5.93;;
43933;SDS011;59081;42.706;23.306;2023-04-24T08:33:13;12.93;;;5.75;;
43933;SDS011;59081;42.706;23.306;2023-04-24T08:35:39;14.55;;;6.47;;
43933;SDS011;59081;42.706;23.306;2023-04-24T08:38:05;11.52;;;6.50;;
43933;SDS011;59081;42.706;23.306;2023-04-24T08:40:30;9.70;;;6.22;;
43933;SDS011;59081;42.706;23.306;2023-04-24T08:42:59;8.02;;;5.95;;
43933;SDS011;59081;42.706;23.306;2023-04-24T08:45:25;12.38;;;6.15;;
43933;SDS011;59081;42.706;23.306;2023-04-24T08:47:52;16.80;;;6.32;;
43933;SDS011;59081;42.706;23.306;2023-04-24T08:50:19;15.02;;;6.45;;
43933;SDS011;59081;42.706;23.306;2023-04-24T08:52:45;11.63;;;6.25;;
43933;SDS011;59081;42.706;23.306;2023-04-24T08:55:14;8.73;;;5.95;;
43933;SDS011;59081;42.706;23.306;2023-04-24T08:57:41;9.18;;;6.68;;
43933;SDS011;59081;42.706;23.306;2023-04-24T09:00:10;13.07;;;5.40;;
43933;SDS011;59081;42.706;23.306;2023-04-24T09:02:35;9.18;;;5.85;;
43933;SDS011;59081;42.706;23.306;2023-04-24T09:05:01;10.10;;;5.88;;
43933;SDS011;59081;42.706;23.306;2023-04-24T09:07:28;8.90;;;7.00;;
43933;SDS011;59081;42.706;23.306;2023-04-24T09:10:01;9.40;;;5.43;;
43933;SDS011;59081;42.706;23.306;2023-04-24T09:12:27;9.27;;;5.65;;
43933;SDS011;59081;42.706;23.306;2023-04-24T09:14:53;9.10;;;6.00;;
43933;SDS011;59081;42.706;23.306;2023-04-24T09:17:20;13.75;;;5.25;;
43933;SDS011;59081;42.706;23.306;2023-04-24T09:19:47;8.50;;;5.18;;
43933;SDS011;59081;42.706;23.306;2023-04-24T09:22:13;7.57;;;4.70;;
43933;SDS011;59081;42.706;23.306;2023-04-24T09:24:40;8.23;;;4.97;;
43933;SDS011;59081;42.706;23.306;2023-04-24T09:27:05;11.10;;;5.18;;
43933;SDS011;59081;42.706;23.306;2023-04-24T09:29:32;10.00;;;5.20;;
43933;SDS011;59081;42.706;23.306;2023-04-24T09:31:58;8.38;;;5.03;;
43933;SDS011;59081;42.706;23.306;2023-04-24T09:34:24;8.13;;;4.90;;
43933;SDS011;59081;42.706;23.306;2023-04-24T09:36:51;12.48;;;5.57;;
43933;SDS011;59081;42.706;23.306;2023-04-24T09:39:18;10.68;;;4.65;;
43933;SDS011;59081;42.706;23.306;2023-04-24T09:46:46;9.43;;;5.90;;
43933;SDS011;59081;42.706;23.306;2023-04-24T09:49:15;7.85;;;5.47;;
43933;SDS011;59081;42.706;23.306;2023-04-24T09:51:45;8.83;;;4.90;;
43933;SDS011;59081;42.706;23.306;2023-04-24T09:54:13;10.07;;;5.15;;
43933;SDS011;59081;42.706;23.306;2023-04-24T09:56:44;9.82;;;4.00;;
43933;SDS011;59081;42.706;23.306;2023-04-24T09:59:12;8.63;;;5.00;;
43933;SDS011;59081;42.706;23.306;2023-04-24T10:01:41;7.75;;;4.95;;
43933;SDS011;59081;42.706;23.306;2023-04-24T10:04:15;7.13;;;4.65;;
43933;SDS011;59081;42.706;23.306;2023-04-24T10:06:42;13.82;;;4.72;;
43933;SDS011;59081;42.706;23.306;2023-04-24T10:09:08;7.13;;;5.15;;
43933;SDS011;59081;42.706;23.306;2023-04-24T10:11:36;11.85;;;5.03;;
43933;SDS011;59081;42.706;23.306;2023-04-24T10:14:02;6.90;;;4.40;;
43933;SDS011;59081;42.706;23.306;2023-04-24T10:16:28;7.07;;;4.75;;
43933;SDS011;59081;42.706;23.306;2023-04-24T10:18:57;9.63;;;4.70;;
43933;SDS011;59081;42.706;23.306;2023-04-24T10:21:24;6.88;;;4.05;;
43933;SDS011;59081;42.706;23.306;2023-04-24T10:23:51;9.65;;;5.15;;
43933;SDS011;59081;42.706;23.306;2023-04-24T10:26:19;13.48;;;4.90;;
43933;SDS011;59081;42.706;23.306;2023-04-24T10:28:46;7.30;;;4.45;;
43933;SDS011;59081;42.706;23.306;2023-04-24T10:31:12;8.48;;;4.60;;
43933;SDS011;59081;42.706;23.306;2023-04-24T10:33:42;11.25;;;4.50;;
43933;SDS011;59081;42.706;23.306;2023-04-24T10:36:09;5.75;;;4.00;;
43933;SDS011;59081;42.706;23.306;2023-04-24T10:38:37;6.35;;;4.90;;
43933;SDS011;59081;42.706;23.306;2023-04-24T10:41:09;10.07;;;5.20;;
43933;SDS011;59081;42.706;23.306;2023-04-24T10:43:40;13.13;;;4.68;;
43933;SDS011;59081;42.706;23.306;2023-04-24T10:46:07;5.07;;;4.20;;
43933;SDS011;59081;42.706;23.306;2023-04-24T10:48:35;6.75;;;4.60;;
43933;SDS011;59081;42.706;23.306;2023-04-24T10:51:01;10.07;;;4.22;;
43933;SDS011;59081;42.706;23.306;2023-04-24T10:53:27;8.82;;;4.25;;
43933;SDS011;59081;42.706;23.306;2023-04-24T10:55:58;7.93;;;4.10;;
43933;SDS011;59081;42.706;23.306;2023-04-24T10:58:38;8.82;;;4.28;;
43933;SDS011;59081;42.706;23.306;2023-04-24T11:01:05;6.95;;;4.35;;
43933;SDS011;59081;42.706;23.306;2023-04-24T11:03:31;6.00;;;3.90;;
43933;SDS011;59081;42.706;23.306;2023-04-24T11:08:30;8.82;;;4.60;;
43933;SDS011;59081;42.706;23.306;2023-04-24T11:10:58;7.07;;;4.22;;
43933;SDS011;59081;42.706;23.306;2023-04-24T11:13:26;8.15;;;4.55;;
43933;SDS011;59081;42.706;23.306;2023-04-24T11:19:04;4.75;;;4.07;;
43933;SDS011;59081;42.706;23.306;2023-04-24T11:21:41;6.22;;;3.80;;
43933;SDS011;59081;42.706;23.306;2023-04-24T11:29:42;6.40;;;3.90;;
43933;SDS011;59081;42.706;23.306;2023-04-24T11:34:59;5.03;;;3.72;;
43933;SDS011;59081;42.706;23.306;2023-04-24T11:40:05;5.75;;;4.45;;
43933;SDS011;59081;42.706;23.306;2023-04-24T11:42:36;8.18;;;4.70;;
43933;SDS011;59081;42.706;23.306;2023-04-24T11:45:02;6.40;;;4.03;;
43933;SDS011;59081;42.706;23.306;2023-04-24T11:47:33;7.05;;;4.03;;
43933;SDS011;59081;42.706;23.306;2023-04-24T11:49:59;5.22;;;3.75;;
43933;SDS011;59081;42.706;23.306;2023-04-24T11:52:26;3.40;;;2.80;;
43933;SDS011;59081;42.706;23.306;2023-04-24T11:54:52;5.22;;;4.10;;
43933;SDS011;59081;42.706;23.306;2023-04-24T11:57:24;7.43;;;3.92;;
43933;SDS011;59081;42.706;23.306;2023-04-24T11:59:52;4.50;;;3.40;;
43933;SDS011;59081;42.706;23.306;2023-04-24T12:02:22;6.57;;;3.38;;
43933;SDS011;59081;42.706;23.306;2023-04-24T12:04:53;8.75;;;3.03;;
43933;SDS011;59081;42.706;23.306;2023-04-24T12:07:19;4.57;;;2.70;;
43933;SDS011;59081;42.706;23.306;2023-04-24T12:12:13;3.80;;;3.40;;
43933;SDS011;59081;42.706;23.306;2023-04-24T12:14:47;4.15;;;3.08;;
43933;SDS011;59081;42.706;23.306;2023-04-24T12:17:14;3.10;;;2.80;;
43933;SDS011;59081;42.706;23.306;2023-04-24T12:19:47;3.92;;;2.95;;
43933;SDS011;59081;42.706;23.306;2023-04-24T12:22:13;4.22;;;2.35;;
43933;SDS011;59081;42.706;23.306;2023-04-24T12:24:55;3.95;;;3.55;;
43933;SDS011;59081;42.706;23.306;2023-04-24T12:27:22;5.03;;;3.50;;
43933;SDS011;59081;42.706;23.306;2023-04-24T12:29:53;8.00;;;3.25;;
43933;SDS011;59081;42.706;23.306;2023-04-24T12:32:22;10.00;;;3.40;;
43933;SDS011;59081;42.706;23.306;2023-04-24T12:34:49;7.78;;;3.38;;
43933;SDS011;59081;42.706;23.306;2023-04-24T12:37:15;4.93;;;3.03;;
43933;SDS011;59081;42.706;23.306;2023-04-24T12:39:44;5.93;;;3.20;;
43933;SDS011;59081;42.706;23.306;2023-04-24T12:42:33;2.75;;;2.08;;
43933;SDS011;59081;42.706;23.306;2023-04-24T12:45:01;7.38;;;3.35;;
43933;SDS011;59081;42.706;23.306;2023-04-24T12:47:29;3.95;;;3.38;;
43933;SDS011;59081;42.706;23.306;2023-04-24T12:49:55;4.80;;;2.50;;
43933;SDS011;59081;42.706;23.306;2023-04-24T12:52:23;4.47;;;3.00;;
43933;SDS011;59081;42.706;23.306;2023-04-24T12:54:58;3.75;;;3.00;;
43933;SDS011;59081;42.706;23.306;2023-04-24T12:57:26;7.28;;;3.42;;
43933;SDS011;59081;42.706;23.306;2023-04-24T12:59:56;3.55;;;3.22;;
43933;SDS011;59081;42.706;23.306;2023-04-24T13:02:24;4.10;;;3.23;;
43933;SDS011;59081;42.706;23.306;2023-04-24T13:04:50;3.35;;;2.95;;
43933;SDS011;59081;42.706;23.306;2023-04-24T13:07:18;7.82;;;3.70;;
43933;SDS011;59081;42.706;23.306;2023-04-24T13:09:44;6.22;;;3.45;;
43933;SDS011;59081;42.706;23.306;2023-04-24T13:12:11;7.68;;;3.40;;
43933;SDS011;59081;42.706;23.306;2023-04-24T13:14:36;6.00;;;3.92;;
43933;SDS011;59081;42.706;23.306;2023-04-24T13:17:03;6.07;;;3.60;;
43933;SDS011;59081;42.706;23.306;2023-04-24T13:19:29;6.82;;;4.15;;
43933;SDS011;59081;42.706;23.306;2023-04-24T13:21:55;6.43;;;3.75;;
43933;SDS011;59081;42.706;23.306;2023-04-24T13:24:22;3.83;;;2.88;;
43933;SDS011;59081;42.706;23.306;2023-04-24T13:26:54;5.25;;;3.38;;
43933;SDS011;59081;42.706;23.306;2023-04-24T13:29:19;4.97;;;2.70;;
43933;SDS011;59081;42.706;23.306;2023-04-24T13:31:49;5.25;;;3.05;;
43933;SDS011;59081;42.706;23.306;2023-04-24T13:34:16;4.53;;;2.95;;
43933;SDS011;59081;42.706;23.306;2023-04-24T13:36:44;6.68;;;2.92;;
43933;SDS011;59081;42.706;23.306;2023-04-24T13:39:11;6.78;;;3.22;;
43933;SDS011;59081;42.706;23.306;2023-04-24T13:41:36;8.63;;;3.55;;
43933;SDS011;59081;42.706;23.306;2023-04-24T13:44:02;6.32;;;3.15;;
43933;SDS011;59081;42.706;23.306;2023-04-24T13:46:28;7.05;;;2.95;;
43933;SDS011;59081;42.706;23.306;2023-04-24T13:48:54;8.05;;;2.90;;
43933;SDS011;59081;42.706;23.306;2023-04-24T13:51:20;3.72;;;2.83;;
43933;SDS011;59081;42.706;23.306;2023-04-24T13:53:46;4.35;;;2.72;;
43933;SDS011;59081;42.706;23.306;2023-04-24T13:56:11;6.85;;;3.03;;
43933;SDS011;59081;42.706;23.306;2023-04-24T13:58:38;5.28;;;3.03;;
43933;SDS011;59081;42.706;23.306;2023-04-24T14:01:04;4.50;;;2.60;;
43933;SDS011;59081;42.706;23.306;2023-04-24T14:03:29;4.45;;;3.10;;
43933;SDS011;59081;42.706;23.306;2023-04-24T14:05:55;7.30;;;3.63;;
43933;SDS011;59081;42.706;23.306;2023-04-24T14:08:21;5.28;;;3.42;;
43933;SDS011;59081;42.706;23.306;2023-04-24T14:10:47;4.22;;;3.17;;
43933;SDS011;59081;42.706;23.306;2023-04-24T14:13:12;7.93;;;3.35;;
43933;SDS011;59081;42.706;23.306;2023-04-24T14:15:38;10.82;;;3.90;;
43933;SDS011;59081;42.706;23.306;2023-04-24T14:18:03;6.88;;;3.60;;
43933;SDS011;59081;42.706;23.306;2023-04-24T14:20:29;3.38;;;2.70;;
43933;SDS011;59081;42.706;23.306;2023-04-24T14:22:55;5.43;;;3.58;;
43933;SDS011;59081;42.706;23.306;2023-04-24T14:25:23;6.03;;;3.40;;
43933;SDS011;59081;42.706;23.306;2023-04-24T14:27:49;6.13;;;3.33;;
43933;SDS011;59081;42.706;23.306;2023-04-24T14:30:15;5.15;;;3.17;;
43933;SDS011;59081;42.706;23.306;2023-04-24T14:32:41;4.60;;;3.08;;
43933;SDS011;59081;42.706;23.306;2023-04-24T14:35:06;4.93;;;2.83;;
43933;SDS011;59081;42.706;23.306;2023-04-24T14:37:32;5.78;;;3.42;;
43933;SDS011;59081;42.706;23.306;2023-04-24T14:39:57;8.10;;;3.50;;
43933;SDS011;59081;42.706;23.306;2023-04-24T14:42:23;3.22;;;2.60;;
43933;SDS011;59081;42.706;23.306;2023-04-24T14:44:48;5.88;;;3.80;;
43933;SDS011;59081;42.706;23.306;2023-04-24T14:47:14;5.20;;;2.95;;
43933;SDS011;59081;42.706;23.306;2023-04-24T14:49:42;5.85;;;2.50;;
43933;SDS011;59081;42.706;23.306;2023-04-24T14:52:08;6.88;;;3.33;;